Time;durP1;ratioP1;P1;durP2;ratioP2;P2;SDS_P1;SDS_P2;PMS_P1;PMS_P2;Temp;Humidity;BMP_temperature;BMP_pressure;BME280_temperature;BME280_humidity;BME280_pressure;Samples;Min_cycle;Max_cycle;Signal;HPM_P1;HPM_P2
2021/04/29 00:00:17;;;;;;;13.15;9.50;;;9.30;99.90;;;8.31;92.38;96187.16;4980201;28;20069;-66
2021/04/29 00:02:44;;;;;;;14.07;10.30;;;9.20;99.90;;;8.27;93.02;96185.66;5015782;28;20034;-66
2021/04/29 00:05:15;;;;;;;16.08;10.60;;;9.20;99.90;;;8.26;93.27;96181.44;5018558;28;20038;-65
2021/04/29 00:07:43;;;;;;;15.52;10.82;;;9.20;99.90;;;8.17;93.94;96186.19;4998376;28;20133;-66
2021/04/29 00:10:17;;;;;;;14.13;10.13;;;9.20;99.90;;;8.22;93.94;96185.09;4984098;28;20810;-65
2021/04/29 00:12:44;;;;;;;11.50;8.70;;;9.30;99.90;;;8.30;93.18;96186.34;5003435;28;20044;-66
2021/04/29 00:15:14;;;;;;;15.65;11.02;;;9.20;99.90;;;8.13;93.64;96184.69;4995268;28;20033;-66
2021/04/29 00:17:41;;;;;;;19.05;12.80;;;9.20;99.90;;;8.21;93.88;96192.03;4992544;28;20053;-65
2021/04/29 00:20:12;;;;;;;15.57;11.23;;;9.20;99.90;;;8.31;93.09;96179.41;4992316;28;20042;-65
2021/04/29 00:22:39;;;;;;;16.50;12.40;;;9.20;99.90;;;8.25;93.69;96190.09;5009623;28;20056;-65
2021/04/29 00:25:07;;;;;;;16.88;10.80;;;9.20;99.90;;;8.34;93.55;96192.16;5006423;28;20049;-65
2021/04/29 00:27:34;;;;;;;16.58;12.02;;;9.10;99.90;;;8.49;93.18;96190.50;4985678;28;20101;-65
2021/04/29 00:30:00;;;;;;;15.68;10.80;;;9.10;99.90;;;8.47;92.54;96189.75;5009586;28;20069;-65
2021/04/29 00:32:27;;;;;;;18.58;11.40;;;9.10;99.90;;;8.38;92.93;96197.06;5006782;28;20104;-65
2021/04/29 00:34:53;;;;;;;13.43;9.80;;;9.00;99.90;;;8.40;92.73;96193.59;5009925;28;20538;-65
2021/04/29 00:37:20;;;;;;;13.70;10.68;;;9.00;99.90;;;8.38;93.02;96191.91;4999957;28;20046;-66
2021/04/29 00:39:46;;;;;;;14.70;10.05;;;9.00;99.90;;;8.38;93.21;96196.25;5002339;28;20451;-65
2021/04/29 00:42:13;;;;;;;20.60;13.68;;;9.00;99.90;;;8.35;93.73;96191.25;5002638;28;20475;-65
2021/04/29 00:44:40;;;;;;;22.67;14.45;;;9.00;99.90;;;8.30;93.76;96188.94;5003940;28;20038;-65
2021/04/29 00:47:08;;;;;;;20.27;14.20;;;9.00;99.90;;;8.14;94.91;96193.25;5002724;28;20038;-65
2021/04/29 00:49:35;;;;;;;18.38;13.52;;;9.00;99.90;;;8.18;94.89;96194.75;5000078;28;20080;-65
2021/04/29 00:52:02;;;;;;;21.20;14.30;;;9.10;99.90;;;8.20;94.85;96194.69;5003958;28;20069;-65
2021/04/29 00:54:30;;;;;;;13.80;10.90;;;9.10;99.90;;;8.41;94.04;96192.69;4967608;28;20060;-65
2021/04/29 00:56:57;;;;;;;16.13;12.15;;;9.10;99.90;;;8.28;94.67;96201.09;5008498;28;20094;-65
2021/04/29 00:59:24;;;;;;;19.55;13.18;;;9.10;99.90;;;8.22;94.87;96200.59;4988420;28;20053;-65
2021/04/29 01:02:04;;;;;;;16.38;11.23;;;9.10;99.90;;;8.25;94.89;96195.25;4977902;28;20135;-65
2021/04/29 01:04:52;;;;;;;17.60;11.77;;;9.10;99.90;;;8.45;94.27;96181.25;5009278;28;20516;-65
2021/04/29 01:07:20;;;;;;;21.83;12.68;;;9.10;99.90;;;8.36;94.35;96177.41;5002837;28;20428;-65
2021/04/29 01:10:13;;;;;;;15.48;10.90;;;9.10;99.90;;;8.45;94.04;96192.44;5002444;28;20049;-65
2021/04/29 01:12:49;;;;;;;19.63;13.32;;;9.10;99.90;;;8.19;94.89;96201.63;4995570;28;20054;-65
2021/04/29 01:15:17;;;;;;;14.82;10.60;;;9.10;99.90;;;8.44;93.84;96195.94;5001691;28;20054;-65
2021/04/29 01:17:47;;;;;;;17.13;10.98;;;9.10;99.90;;;8.41;93.71;96190.94;4979323;28;20064;-65
2021/04/29 01:20:38;;;;;;;16.05;11.05;;;9.00;99.90;;;8.39;93.59;96182.38;4984896;28;20155;-65
2021/04/29 01:23:41;;;;;;;16.40;10.55;;;9.00;99.90;;;8.27;94.08;96191.66;5008543;28;20046;-65
2021/04/29 01:26:26;;;;;;;21.15;13.18;;;9.00;99.90;;;8.22;94.48;96198.84;4983367;28;20422;-65
2021/04/29 01:28:54;;;;;;;18.92;11.90;;;9.00;99.90;;;8.25;94.20;96205.59;4981824;28;20573;-65
2021/04/29 01:31:28;;;;;;;16.58;11.75;;;9.00;99.90;;;8.12;94.85;96214.03;5000171;28;20045;-66
2021/04/29 01:33:59;;;;;;;17.55;12.75;;;9.00;99.90;;;8.04;95.58;96221.38;4987494;28;20050;-65
2021/04/29 01:36:30;;;;;;;16.88;10.88;;;9.10;99.90;;;8.07;94.86;96228.09;4982821;28;20395;-65
2021/04/29 01:38:59;;;;;;;16.70;11.52;;;9.10;99.90;;;7.98;94.71;96234.59;4990961;28;20494;-65
2021/04/29 01:41:26;;;;;;;16.55;10.85;;;9.10;99.90;;;8.15;94.33;96229.38;4980757;28;20057;-65
2021/04/29 01:43:54;;;;;;;18.63;12.15;;;9.10;99.90;;;8.02;94.58;96238.69;4994644;28;20479;-65
2021/04/29 01:46:21;;;;;;;17.75;12.23;;;9.10;99.90;;;8.22;93.98;96236.81;5000210;28;20082;-65
2021/04/29 01:48:48;;;;;;;19.25;11.63;;;9.10;99.90;;;8.12;94.29;96233.88;4988817;28;20065;-65
2021/04/29 01:51:16;;;;;;;14.55;9.52;;;9.10;99.90;;;8.28;93.32;96226.09;4989969;28;20112;-65
2021/04/29 01:53:42;;;;;;;14.23;10.95;;;9.10;99.90;;;8.32;93.38;96232.78;5008141;28;20107;-64
2021/04/29 01:56:10;;;;;;;15.55;11.23;;;9.10;99.90;;;8.35;92.70;96235.22;4989732;28;20454;-65
2021/04/29 01:58:38;;;;;;;13.77;10.15;;;9.10;99.90;;;8.35;92.32;96230.88;5009147;28;20050;-64
2021/04/29 02:01:05;;;;;;;14.82;10.73;;;9.10;99.90;;;8.37;92.50;96235.97;5000217;28;20521;-65
2021/04/29 02:03:32;;;;;;;15.00;10.68;;;9.10;99.90;;;8.32;93.08;96237.94;5000464;28;20518;-65
2021/04/29 02:05:59;;;;;;;16.70;11.07;;;9.00;99.90;;;8.42;92.26;96239.16;5005025;28;20087;-65
2021/04/29 02:08:26;;;;;;;17.58;10.90;;;9.10;99.90;;;8.31;92.49;96244.03;5008520;28;20063;-65
2021/04/29 02:10:54;;;;;;;16.10;10.25;;;9.00;99.90;;;8.49;91.49;96235.31;5001583;28;20062;-65
2021/04/29 02:13:22;;;;;;;19.13;11.60;;;9.00;99.90;;;8.28;92.31;96233.84;4994162;28;20045;-65
2021/04/29 02:15:55;;;;;;;15.23;9.82;;;9.10;99.90;;;8.46;92.06;96238.06;4990629;28;20065;-65
2021/04/29 02:18:23;;;;;;;14.68;9.80;;;9.10;99.90;;;8.43;91.98;96234.81;4999892;28;20045;-65
2021/04/29 02:20:51;;;;;;;16.33;11.30;;;9.00;99.90;;;8.43;91.97;96242.56;4975833;28;20087;-65
2021/04/29 02:23:24;;;;;;;17.48;12.45;;;9.00;99.90;;;8.36;92.41;96247.22;5006237;28;20042;-64
2021/04/29 02:25:56;;;;;;;14.75;10.68;;;9.00;99.90;;;8.39;92.22;96241.84;4972285;28;20050;-65
2021/04/29 02:28:25;;;;;;;15.43;11.30;;;9.00;99.90;;;8.44;91.91;96239.03;4978306;28;20052;-65
2021/04/29 02:30:52;;;;;;;17.27;11.50;;;9.00;99.90;;;8.43;92.08;96242.56;5004084;28;20107;-65
2021/04/29 02:33:20;;;;;;;15.63;10.95;;;9.00;99.90;;;8.33;92.58;96252.56;4973280;28;20053;-64
2021/04/29 02:35:47;;;;;;;17.55;11.88;;;9.00;99.90;;;8.50;92.11;96243.88;4991267;28;20072;-65
2021/04/29 02:38:16;;;;;;;17.63;12.35;;;9.00;99.90;;;8.24;93.10;96250.47;4973651;28;20050;-65
2021/04/29 02:40:45;;;;;;;19.75;11.57;;;9.00;99.90;;;8.34;92.79;96254.22;4990318;28;20498;-65
2021/04/29 02:43:14;;;;;;;15.82;11.70;;;9.00;99.90;;;8.34;92.36;96264.56;5006407;28;20045;-65
2021/04/29 02:45:43;;;;;;;16.85;11.05;;;9.00;99.90;;;8.43;92.37;96258.91;4986391;28;20049;-64
2021/04/29 02:48:10;;;;;;;17.42;11.07;;;9.00;99.90;;;8.45;91.93;96264.84;4971570;28;20049;-65
2021/04/29 02:50:43;;;;;;;16.27;9.48;;;9.00;99.90;;;8.30;92.34;96274.25;4989882;28;20121;-65
2021/04/29 02:53:15;;;;;;;13.63;10.07;;;9.00;99.90;;;8.29;92.56;96267.38;5006359;28;20056;-65
2021/04/29 02:55:44;;;;;;;13.07;10.07;;;9.00;99.90;;;8.29;91.85;96264.81;5007082;28;20061;-65
2021/04/29 02:58:13;;;;;;;17.05;10.88;;;9.00;99.90;;;8.19;92.29;96266.22;5006961;28;20411;-65
2021/04/29 03:00:42;;;;;;;14.02;10.70;;;9.00;99.90;;;8.35;91.09;96263.66;4988831;28;20050;-65
2021/04/29 03:03:09;;;;;;;17.27;7.88;;;9.00;99.90;;;8.30;91.41;96271.66;4977049;28;20134;-65
2021/04/29 03:05:37;;;;;;;15.27;9.63;;;9.00;99.90;;;8.25;92.07;96260.72;5010800;28;20132;-65
2021/04/29 03:08:05;;;;;;;18.60;10.30;;;9.00;99.90;;;8.26;92.43;96264.16;5009771;28;20495;-65
2021/04/29 03:10:32;;;;;;;17.65;11.50;;;9.00;99.90;;;8.35;92.60;96266.25;5009364;28;20395;-65
2021/04/29 03:13:03;;;;;;;14.93;10.48;;;9.00;99.90;;;8.34;92.67;96267.97;4994078;28;20062;-65
2021/04/29 03:15:30;;;;;;;15.82;11.55;;;9.00;99.90;;;8.25;92.84;96276.22;4976382;28;20049;-65
2021/04/29 03:17:57;;;;;;;15.32;11.30;;;9.00;99.90;;;8.29;93.33;96266.56;5015144;28;20105;-65
2021/04/29 03:20:37;;;;;;;18.27;11.57;;;9.10;99.90;;;8.33;93.40;96268.91;4993618;28;20050;-65
2021/04/29 03:23:05;;;;;;;15.07;10.80;;;9.10;99.90;;;8.44;92.56;96265.75;5010267;28;20034;-65
2021/04/29 03:25:31;;;;;;;13.95;10.60;;;9.10;99.90;;;8.43;92.97;96271.00;5009001;28;20375;-65
2021/04/29 03:27:58;;;;;;;17.88;11.48;;;9.10;99.90;;;8.43;93.39;96266.66;5009973;28;20398;-64
2021/04/29 03:30:25;;;;;;;22.67;14.27;;;9.20;99.90;;;8.22;94.35;96280.75;4993054;28;20042;-65
2021/04/29 03:32:51;;;;;;;18.40;12.13;;;9.20;99.90;;;8.53;93.28;96266.97;4993119;28;20046;-65
2021/04/29 03:35:18;;;;;;;21.27;13.73;;;9.20;99.90;;;8.46;92.77;96263.06;5012228;28;20414;-65
2021/04/29 03:37:45;;;;;;;20.42;13.77;;;9.20;99.90;;;8.35;93.97;96274.00;5011499;28;20141;-65
2021/04/29 03:40:12;;;;;;;17.77;12.75;;;9.20;99.90;;;8.48;93.60;96272.41;4992754;28;20038;-65
2021/04/29 03:42:39;;;;;;;18.88;12.93;;;9.30;99.90;;;8.61;92.47;96264.00;5010839;28;20045;-65
2021/04/29 03:45:07;;;;;;;20.10;12.65;;;9.20;99.90;;;8.62;92.14;96266.50;4999682;28;20037;-64
2021/04/29 03:47:33;;;;;;;17.48;11.98;;;9.30;99.90;;;8.65;92.01;96260.31;4992759;28;20053;-65
2021/04/29 03:50:00;;;;;;;15.07;11.23;;;9.30;99.90;;;8.65;91.70;96265.50;5005880;28;20049;-65
2021/04/29 03:52:27;;;;;;;16.63;12.25;;;9.30;99.90;;;8.70;90.85;96272.06;5007641;28;20070;-65
2021/04/29 03:54:54;;;;;;;19.80;13.77;;;9.30;99.90;;;8.44;92.01;96283.00;4990902;28;20471;-65
2021/04/29 03:57:21;;;;;;;19.48;13.57;;;9.30;99.90;;;8.40;92.33;96281.50;4996615;28;20053;-65
2021/04/29 03:59:47;;;;;;;15.75;11.95;;;9.30;99.90;;;8.55;92.25;96278.94;5006639;28;20367;-65
2021/04/29 04:02:14;;;;;;;16.92;12.77;;;9.30;99.90;;;8.51;91.69;96274.84;5009187;28;20037;-65
2021/04/29 04:04:40;;;;;;;15.50;9.70;;;9.30;99.90;;;8.61;90.54;96282.91;4992619;28;20053;-65
2021/04/29 04:07:08;;;;;;;18.73;12.20;;;9.20;99.90;;;8.44;90.80;96286.44;4991680;28;20057;-65
2021/04/29 04:09:34;;;;;;;17.38;13.18;;;9.20;99.90;;;8.34;91.18;96287.81;5008846;28;20514;-65
2021/04/29 04:12:01;;;;;;;20.55;14.10;;;9.20;99.90;;;8.39;91.30;96285.81;5010239;28;20148;-65
2021/04/29 04:14:32;;;;;;;26.65;16.05;;;9.20;99.90;;;8.21;92.31;96289.41;5006650;28;20518;-64
2021/04/29 04:16:59;;;;;;;25.95;16.45;;;9.20;99.90;;;8.25;92.52;96296.06;5004025;28;20053;-65
2021/04/29 04:19:26;;;;;;;18.83;13.88;;;9.20;99.90;;;8.29;91.58;96302.75;5009158;28;20038;-65
2021/04/29 04:21:52;;;;;;;16.45;13.30;;;9.20;99.90;;;8.33;91.18;96289.56;5008828;28;20042;-65
2021/04/29 04:24:19;;;;;;;20.00;14.30;;;9.20;99.90;;;8.28;91.28;96290.72;5009548;28;20034;-65
2021/04/29 04:26:46;;;;;;;19.95;14.02;;;9.20;99.90;;;8.56;90.11;96292.69;5008392;28;20033;-65
2021/04/29 04:29:12;;;;;;;17.00;11.98;;;9.10;99.90;;;8.39;90.34;96301.31;5008483;28;20116;-66
2021/04/29 04:31:39;;;;;;;16.30;11.98;;;9.20;99.90;;;8.46;89.89;96297.53;4991503;28;20046;-65
2021/04/29 04:34:06;;;;;;;16.15;11.95;;;9.20;99.90;;;8.43;89.19;96300.28;5009726;28;20038;-65
2021/04/29 04:36:32;;;;;;;15.65;10.95;;;9.20;99.90;;;8.52;89.15;96297.19;4983740;28;20191;-65
2021/04/29 04:39:01;;;;;;;16.27;10.85;;;9.20;99.90;;;8.53;89.37;96304.03;4990373;28;20056;-65
2021/04/29 04:41:28;;;;;;;17.05;12.32;;;9.20;99.90;;;8.48;89.98;96308.63;5008918;28;20053;-65
2021/04/29 04:43:55;;;;;;;16.17;10.68;;;9.20;99.90;;;8.57;89.71;96304.69;5007240;28;20156;-65
2021/04/29 04:46:23;;;;;;;18.85;12.65;;;9.20;99.90;;;8.57;89.49;96310.69;5002939;28;20042;-65
2021/04/29 04:48:49;;;;;;;18.70;11.15;;;9.20;99.90;;;8.48;90.11;96310.38;4988925;28;20203;-65
2021/04/29 04:51:16;;;;;;;15.80;11.77;;;9.20;99.90;;;8.57;89.90;96312.44;5004804;28;20041;-65
2021/04/29 04:53:43;;;;;;;19.05;12.77;;;9.20;99.90;;;8.53;90.00;96311.81;5001847;28;20042;-65
2021/04/29 04:56:10;;;;;;;18.83;12.63;;;9.30;99.90;;;8.54;90.11;96317.81;5003962;28;20038;-65
2021/04/29 04:58:36;;;;;;;15.50;11.55;;;9.30;99.90;;;8.45;90.39;96321.72;4984735;28;20470;-65
2021/04/29 05:01:03;;;;;;;20.45;13.13;;;9.20;99.90;;;8.43;90.99;96315.78;4988373;28;20077;-65
2021/04/29 05:03:30;;;;;;;15.63;10.23;;;9.20;99.90;;;8.48;90.42;96307.78;4992157;28;20041;-65
2021/04/29 05:05:57;;;;;;;17.33;11.20;;;9.20;99.90;;;8.24;90.77;96321.09;4986558;28;20108;-65
2021/04/29 05:08:23;;;;;;;15.50;11.75;;;9.30;99.90;;;8.47;90.54;96319.06;5009544;28;20042;-65
2021/04/29 05:10:50;;;;;;;16.52;10.68;;;9.30;99.90;;;8.55;90.10;96306.53;5000649;28;20045;-65
2021/04/29 05:13:18;;;;;;;15.73;10.80;;;9.30;99.90;;;8.51;89.32;96316.22;4988913;28;20238;-65
2021/04/29 05:15:44;;;;;;;15.93;9.85;;;9.30;99.90;;;8.61;89.44;96321.72;4989541;28;20065;-65
2021/04/29 05:18:11;;;;;;;17.55;11.50;;;9.30;99.90;;;8.45;89.76;96326.06;5002570;28;20054;-65
2021/04/29 05:20:38;;;;;;;16.20;11.25;;;9.30;99.90;;;8.56;89.58;96329.72;5007456;28;20038;-65
2021/04/29 05:23:05;;;;;;;16.30;10.98;;;9.30;99.90;;;8.37;89.79;96336.81;5007915;28;20125;-65
2021/04/29 05:25:31;;;;;;;13.75;9.98;;;9.30;99.90;;;8.49;89.45;96336.16;4995555;28;20139;-65
2021/04/29 05:28:02;;;;;;;16.95;10.63;;;9.30;99.90;;;8.42;90.21;96339.16;5008107;28;20445;-65
2021/04/29 05:30:30;;;;;;;18.58;12.82;;;9.20;99.90;;;8.22;91.24;96346.19;4990836;28;20124;-65
2021/04/29 05:32:56;;;;;;;21.10;12.70;;;9.30;99.90;;;8.30;89.82;96350.94;4999507;28;20043;-65
2021/04/29 05:35:23;;;;;;;18.25;11.73;;;9.20;99.90;;;8.30;89.74;96351.81;4994348;28;20487;-65
2021/04/29 05:37:50;;;;;;;20.13;13.35;;;9.20;99.90;;;8.10;90.59;96352.84;5008544;28;20052;-65
2021/04/29 05:40:16;;;;;;;16.25;12.57;;;9.20;99.90;;;8.32;90.67;96352.53;5003295;28;20042;-65
2021/04/29 05:42:44;;;;;;;18.75;12.85;;;9.20;99.90;;;8.51;89.07;96351.59;4989677;28;20058;-65
2021/04/29 05:45:12;;;;;;;18.38;12.57;;;9.20;99.90;;;8.30;88.81;96358.69;5005276;28;20049;-65
2021/04/29 05:47:40;;;;;;;22.25;14.68;;;9.20;99.90;;;8.22;90.29;96363.47;5008573;28;20049;-65
2021/04/29 05:50:09;;;;;;;18.98;15.07;;;9.20;99.90;;;8.30;90.05;96366.47;5009850;28;20046;-65
2021/04/29 05:52:36;;;;;;;15.07;10.60;;;9.20;99.90;;;8.36;89.46;96376.47;4990423;28;20042;-65
2021/04/29 05:55:04;;;;;;;14.15;11.38;;;9.30;99.90;;;8.51;87.67;96354.19;4971404;28;20049;-65
2021/04/29 05:57:31;;;;;;;22.02;14.35;;;9.40;99.90;;;8.41;88.63;96355.59;4989095;28;20050;-65
2021/04/29 05:59:58;;;;;;;23.35;16.60;;;9.50;99.90;;;8.59;88.95;96345.06;5006816;28;20038;-65
2021/04/29 06:02:24;;;;;;;21.27;15.80;;;9.60;99.90;;;8.72;87.93;96344.41;4986814;28;20062;-65
2021/04/29 06:04:51;;;;;;;23.48;15.20;;;9.60;99.90;;;8.70;88.07;96351.44;5000181;28;20491;-65
2021/04/29 06:07:18;;;;;;;21.40;13.93;;;9.60;99.90;;;8.46;88.39;96369.09;5012401;28;20038;-65
2021/04/29 06:09:44;;;;;;;18.80;14.75;;;9.60;99.90;;;8.47;89.46;96355.25;5016163;28;20061;-65
2021/04/29 06:12:15;;;;;;;18.38;12.50;;;9.70;99.90;;;8.82;87.50;96365.44;5007455;28;20050;-65
2021/04/29 06:14:43;;;;;;;18.55;13.27;;;9.70;99.90;;;9.02;85.86;96364.34;5015853;28;20049;-65
2021/04/29 06:17:10;;;;;;;22.10;15.45;;;9.80;99.90;;;8.83;88.00;96367.13;4991673;28;20446;-65
2021/04/29 06:19:39;;;;;;;14.48;10.82;;;10.10;99.90;;;9.19;86.50;96370.25;5005124;28;20053;-65
2021/04/29 06:22:05;;;;;;;16.75;12.10;;;10.10;99.90;;;8.81;86.73;96353.44;4999013;28;20049;-65
2021/04/29 06:24:32;;;;;;;16.58;12.77;;;10.10;99.90;;;9.04;86.06;96347.81;5004234;28;20046;-65
2021/04/29 06:26:58;;;;;;;17.35;12.23;;;10.00;99.90;;;8.71;86.86;96363.44;5010467;28;20056;-66
2021/04/29 06:29:25;;;;;;;22.38;15.35;;;9.90;99.90;;;8.73;88.97;96365.00;5012432;28;20180;-65
2021/04/29 06:31:52;;;;;;;17.27;13.50;;;9.90;99.90;;;8.90;88.16;96368.44;5017395;28;20494;-65
2021/04/29 06:34:19;;;;;;;18.98;14.77;;;10.00;99.90;;;8.69;89.22;96362.69;5015529;28;20058;-65
2021/04/29 06:36:45;;;;;;;21.35;14.00;;;10.00;99.90;;;8.80;87.85;96365.50;5003314;28;20115;-65
2021/04/29 06:39:12;;;;;;;22.23;13.23;;;10.00;99.90;;;8.76;88.53;96377.81;5028838;28;20045;-65
2021/04/29 06:41:39;;;;;;;18.55;13.45;;;10.10;99.90;;;8.70;87.65;96383.31;5016774;28;20497;-66
2021/04/29 06:44:05;;;;;;;14.98;11.45;;;10.10;99.90;;;8.92;86.55;96380.38;5020898;28;20041;-65
2021/04/29 06:46:32;;;;;;;18.90;13.32;;;10.00;99.90;;;8.65;87.15;96382.72;5009281;28;20062;-66
2021/04/29 06:48:58;;;;;;;16.30;11.77;;;10.10;99.90;;;8.93;86.48;96378.63;5025609;28;20137;-65
2021/04/29 06:51:25;;;;;;;17.20;12.88;;;10.20;99.90;;;8.96;86.74;96388.78;5024030;28;20046;-65
2021/04/29 06:54:06;;;;;;;16.98;11.77;;;10.20;99.90;;;9.13;85.41;96374.94;5017658;28;20053;-65
2021/04/29 06:56:34;;;;;;;19.50;14.60;;;10.20;99.90;;;8.89;86.92;96377.94;4995667;28;20046;-66
2021/04/29 06:59:10;;;;;;;17.42;13.32;;;10.30;99.90;;;8.96;85.72;96386.22;5028702;28;20179;-65
2021/04/29 07:01:36;;;;;;;17.17;12.73;;;10.40;99.90;;;9.23;85.17;96388.19;5022960;28;20121;-66
2021/04/29 07:04:03;;;;;;;16.50;12.13;;;10.30;99.90;;;8.76;86.53;96405.44;5024857;28;20045;-66
2021/04/29 07:06:30;;;;;;;16.63;11.98;;;10.40;99.90;;;8.96;85.82;96397.41;5012518;28;20060;-66
2021/04/29 07:08:58;;;;;;;16.65;12.82;;;10.30;99.90;;;9.08;84.79;96408.03;4993887;28;20077;-66
2021/04/29 07:11:26;;;;;;;17.77;11.13;;;10.30;99.90;;;9.26;82.94;96388.88;4977671;28;20057;-66
2021/04/29 07:13:53;;;;;;;17.13;11.50;;;10.10;99.90;;;9.03;83.94;96404.81;5011535;28;20049;-66
2021/04/29 07:16:19;;;;;;;17.35;12.70;;;10.20;99.90;;;9.47;81.80;96393.75;5005811;28;20076;-66
2021/04/29 07:18:46;;;;;;;19.10;14.05;;;10.30;99.90;;;9.36;82.29;96405.53;4992190;28;20145;-66
2021/04/29 07:21:13;;;;;;;17.63;14.13;;;10.50;99.90;;;9.56;81.79;96395.81;4991304;28;20045;-66
2021/04/29 07:23:39;;;;;;;18.02;13.73;;;10.70;99.90;;;9.47;80.60;96397.16;4999449;28;20066;-66
2021/04/29 07:26:06;;;;;;;18.27;13.85;;;10.70;99.90;;;9.21;82.04;96402.06;4987869;28;20038;-66
2021/04/29 07:28:36;;;;;;;20.77;15.75;;;10.70;99.90;;;9.16;83.16;96398.06;4988533;28;20046;-66
2021/04/29 07:31:03;;;;;;;20.08;13.57;;;10.80;99.90;;;9.30;81.11;96412.81;5009123;28;20030;-66
2021/04/29 07:33:30;;;;;;;19.23;13.85;;;10.70;99.90;;;9.52;80.34;96392.56;5004347;28;20046;-66
2021/04/29 07:35:57;;;;;;;22.10;14.40;;;10.80;99.90;;;9.44;80.11;96407.69;4991772;28;20879;-66
2021/04/29 07:38:23;;;;;;;18.85;14.10;;;10.90;99.90;;;9.89;78.70;96405.13;4974134;28;20046;-67
2021/04/29 07:40:50;;;;;;;21.30;14.48;;;11.00;99.90;;;9.74;78.24;96405.13;4977063;28;20038;-66
2021/04/29 07:43:17;;;;;;;19.65;14.95;;;11.00;99.90;;;9.63;78.98;96417.84;5010230;28;20029;-67
2021/04/29 07:45:44;;;;;;;23.00;14.32;;;11.10;99.90;;;9.34;79.78;96422.09;4989120;28;20061;-66
2021/04/29 07:48:10;;;;;;;20.77;14.68;;;11.20;99.90;;;9.35;78.53;96426.34;5006210;28;20037;-66
2021/04/29 07:50:37;;;;;;;18.08;13.93;;;11.30;99.90;;;9.72;79.65;96416.50;5010082;28;20053;-66
2021/04/29 07:53:04;;;;;;;21.15;13.77;;;11.50;99.90;;;9.78;76.13;96416.97;4988669;28;20049;-66
2021/04/29 07:55:31;;;;;;;22.27;13.70;;;11.70;99.90;;;9.91;77.13;96426.63;4998659;28;20069;-66
2021/04/29 07:57:58;;;;;;;17.45;11.68;;;12.00;99.90;;;9.68;76.22;96418.41;4994062;28;20577;-66
2021/04/29 08:00:24;;;;;;;18.60;11.30;;;12.10;99.90;;;10.12;74.41;96412.38;5010755;28;20042;-67
2021/04/29 08:02:50;;;;;;;15.95;12.32;;;11.80;99.90;;;10.24;75.32;96418.59;4987777;28;20038;-66
2021/04/29 08:05:18;;;;;;;15.30;9.45;;;11.80;99.90;;;9.99;73.03;96438.22;4975212;28;20066;-66
2021/04/29 08:07:45;;;;;;;15.63;10.88;;;11.50;99.90;;;10.19;72.89;96431.84;4993376;28;20090;-66
2021/04/29 08:10:14;;;;;;;14.38;10.43;;;11.50;99.90;;;10.02;73.84;96419.06;4989842;28;20046;-66
2021/04/29 08:12:41;;;;;;;15.50;11.32;;;11.50;99.90;;;9.97;76.02;96421.09;4973145;28;20085;-66
2021/04/29 08:15:08;;;;;;;16.65;10.95;;;11.50;99.90;;;10.22;74.98;96417.88;4976908;28;20061;-66
2021/04/29 08:17:35;;;;;;;14.93;10.70;;;11.50;99.90;;;9.96;75.66;96429.75;5017176;28;20133;-66
2021/04/29 08:20:04;;;;;;;16.67;10.93;;;11.60;99.90;;;9.74;75.03;96427.56;5030093;28;20041;-66
2021/04/29 08:22:32;;;;;;;20.30;11.02;;;11.70;99.90;;;10.09;74.05;96422.94;4995213;28;20034;-66
2021/04/29 08:25:00;;;;;;;15.27;10.18;;;12.00;99.90;;;10.86;70.92;96406.19;4976105;28;20049;-66
2021/04/29 08:27:27;;;;;;;13.85;7.70;;;12.20;99.90;;;10.81;69.88;96422.97;5009453;28;20080;-66
2021/04/29 08:30:03;;;;;;;15.13;9.60;;;11.90;99.90;;;10.72;69.39;96437.34;5009602;28;20502;-66
2021/04/29 08:32:30;;;;;;;14.63;9.77;;;12.10;99.90;;;11.08;69.52;96433.38;4975888;28;20064;-66
2021/04/29 08:34:56;;;;;;;15.07;9.75;;;12.50;99.90;;;11.30;69.71;96425.06;5004421;28;20482;-66
2021/04/29 08:37:23;;;;;;;12.40;8.63;;;13.00;99.90;;;11.58;67.59;96433.69;5006159;28;20054;-66
2021/04/29 08:39:49;;;;;;;15.18;10.23;;;13.20;99.90;;;12.77;66.40;96430.91;5008712;28;20041;-67
2021/04/29 08:42:16;;;;;;;11.48;8.20;;;13.40;99.90;;;12.23;64.30;96436.34;5014717;28;20137;-66
2021/04/29 08:44:44;;;;;;;11.90;8.70;;;13.50;99.90;;;11.27;68.69;96456.47;5027340;28;20130;-67
2021/04/29 08:47:17;;;;;;;10.35;7.95;;;13.90;99.90;;;11.43;67.39;96472.72;5006378;28;20104;-67
2021/04/29 08:49:44;;;;;;;13.40;8.75;;;13.70;99.90;;;11.44;68.83;96473.56;5009756;28;20145;-67
2021/04/29 08:52:11;;;;;;;11.88;8.13;;;14.00;99.90;;;11.66;64.73;96476.44;5006436;28;20034;-67
2021/04/29 08:54:38;;;;;;;12.68;9.55;;;13.90;99.90;;;11.87;64.24;96460.38;4974393;28;20061;-66
2021/04/29 08:57:06;;;;;;;13.85;8.65;;;13.90;99.90;;;11.33;65.31;96473.41;5007442;28;20044;-66
2021/04/29 08:59:34;;;;;;;20.52;8.77;;;13.90;99.90;;;11.55;65.77;96450.31;4991672;28;20475;-66
2021/04/29 09:02:01;;;;;;;15.40;9.43;;;13.50;99.90;;;11.54;64.96;96473.78;5006804;28;20133;-66
2021/04/29 09:04:41;;;;;;;13.27;8.43;;;13.50;99.90;;;11.05;67.79;96477.72;5008950;28;20057;-67
2021/04/29 09:07:17;;;;;;;13.77;8.90;;;13.70;99.90;;;11.99;65.03;96463.97;4976401;28;20048;-67
2021/04/29 09:09:45;;;;;;;15.85;9.50;;;13.90;99.90;;;11.78;63.58;96468.78;4972352;28;20049;-67
2021/04/29 09:12:12;;;;;;;12.65;8.73;;;14.20;99.90;;;11.38;63.92;96464.41;4990709;28;20058;-67
2021/04/29 09:14:42;;;;;;;13.50;9.93;;;14.30;99.90;;;11.13;64.53;96477.25;4991027;28;20079;-67
2021/04/29 09:17:10;;;;;;;19.52;9.45;;;14.30;99.90;;;11.42;64.10;96462.44;5007786;28;20085;-67
2021/04/29 09:19:50;;;;;;;15.15;9.93;;;14.10;99.90;;;11.55;63.13;96484.09;4988030;28;20134;-66
2021/04/29 09:22:21;;;;;;;15.05;8.90;;;13.40;99.90;;;11.60;63.58;96474.25;5014732;28;20052;-66
2021/04/29 09:24:48;;;;;;;15.35;8.93;;;13.30;99.90;;;12.72;61.62;96455.56;4997034;28;20121;-66
2021/04/29 09:27:23;;;;;;;15.20;8.65;;;13.50;99.90;;;13.03;60.19;96450.84;4987656;28;20054;-67
2021/04/29 09:29:52;;;;;;;16.60;8.95;;;13.80;99.90;;;12.49;61.64;96484.00;4988319;28;20112;-67
2021/04/29 09:32:35;;;;;;;15.20;9.60;;;14.20;99.90;;;12.30;59.81;96476.63;5016195;28;20038;-67
2021/04/29 09:35:15;;;;;;;14.70;8.43;;;14.30;99.90;;;12.37;58.80;96469.22;5000162;28;20057;-67
2021/04/29 09:37:42;;;;;;;13.38;8.55;;;14.80;99.90;;;12.97;60.12;96445.09;4991936;28;20069;-67
2021/04/29 09:40:21;;;;;;;15.65;9.27;;;15.20;99.90;;;13.71;55.23;96444.25;4992152;28;20041;-67
2021/04/29 09:42:49;;;;;;;14.52;10.00;;;15.30;99.90;;;13.44;57.70;96445.31;5015834;28;20117;-67
2021/04/29 09:45:28;;;;;;;14.77;9.10;;;15.50;99.90;;;12.61;58.15;96438.06;4993252;28;20038;-67
2021/04/29 09:47:58;;;;;;;12.15;7.75;;;15.30;99.90;;;13.32;56.89;96436.59;5007256;28;20126;-67
2021/04/29 09:50:30;;;;;;;15.80;8.73;;;15.10;99.90;;;12.60;57.83;96457.25;5007446;28;20049;-67
2021/04/29 09:53:03;;;;;;;10.70;7.82;;;15.10;99.90;;;12.90;58.11;96458.66;4991434;28;20046;-65
2021/04/29 09:55:31;;;;;;;10.77;7.78;;;15.50;99.90;;;13.16;57.74;96469.88;5006143;28;20064;-65
2021/04/29 09:58:17;;;;;;;15.18;8.75;;;15.50;99.90;;;12.90;59.04;96476.91;4992793;28;20045;-67
2021/04/29 10:00:47;;;;;;;12.55;8.27;;;15.70;99.90;;;13.13;59.69;96464.88;4997759;28;20041;-67
2021/04/29 10:03:14;;;;;;;10.70;7.28;;;16.10;99.90;;;14.46;54.69;96453.44;5007800;28;20046;-67
2021/04/29 10:05:41;;;;;;;15.15;7.82;;;16.30;99.90;;;14.34;54.39;96465.66;5015735;28;20042;-65
2021/04/29 10:08:14;;;;;;;14.15;7.10;;;16.60;99.90;;;14.76;51.53;96472.03;4994396;28;20494;-64
2021/04/29 10:10:45;;;;;;;;;;;16.50;99.90;;;14.85;50.13;96488.78;5010134;28;20457;-65
2021/04/29 10:13:12;;;;;;;12.23;7.95;;;16.30;99.90;;;14.70;51.75;96453.38;5023189;28;20247;-67
2021/04/29 10:15:41;;;;;;;11.98;8.18;;;16.30;99.90;;;14.05;52.13;96478.25;5013174;28;20645;-67
2021/04/29 10:18:10;;;;;;;9.95;6.95;;;16.50;99.90;;;13.99;51.65;96458.69;5013777;28;20530;-66
2021/04/29 10:20:40;;;;;;;10.23;6.63;;;16.80;99.90;;;14.26;52.69;96454.97;4994565;28;20038;-67
2021/04/29 10:23:16;;;;;;;13.00;7.45;;;16.60;99.90;;;12.98;55.07;96467.63;4994816;28;20114;-67